This is the latest recevied weather packets stored in our database for station/object VE8SKI. If no packets are shown the sender has not sent any weather packets the latest 10 day(s).
| Time | Temp. | Humidity | Pressure | Rain* | Wind** | Luminosity | Snow |
|---|---|---|---|---|---|---|---|
| 1777995219 | 2.22° C | 50% | 1025.4 hPa | 0 mm | 1.79 m/s, 218° | - | - |
| 1777994919 | 1.67° C | 49% | 1025.5 hPa | 0 mm | 2.68 m/s, 240° | - | - |
| 1777994617 | 1.67° C | 49% | 1025.6 hPa | 0 mm | 3.13 m/s, 188° | - | - |
| 1777994318 | 1.67° C | 48% | 1025.7 hPa | 0 mm | 3.13 m/s, 222° | - | - |
| 1777994018 | 1.67° C | 48% | 1025.8 hPa | 0 mm | 1.79 m/s, 238° | - | - |
| 1777993718 | 1.67° C | 48% | 1025.9 hPa | 0 mm | 2.24 m/s, 215° | - | - |
| 1777993419 | 1.11° C | 46% | 1026 hPa | 0 mm | 2.68 m/s, 252° | - | - |
| 1777993119 | 1.11° C | 46% | 1026.1 hPa | 0 mm | 3.13 m/s, 195° | - | - |
| 1777992817 | 1.11° C | 46% | 1026.2 hPa | 0 mm | 2.68 m/s, 281° | - | - |
| 1777992517 | 1.11° C | 46% | 1026.2 hPa | 0 mm | 2.68 m/s, 207° | - | - |
| 1777992217 | 1.67° C | 47% | 1026.3 hPa | 0 mm | 2.24 m/s, 8° | - | - |
| 1777991918 | 1.67° C | 48% | 1026.4 hPa | 0 mm | 2.24 m/s, 0° | - | - |
| 1777991618 | 1.67° C | 47% | 1026.6 hPa | 0 mm | 1.79 m/s, 240° | - | - |
| 1777991318 | 1.67° C | 49% | 1026.7 hPa | 0 mm | 0.89 m/s, 274° | - | - |
| 1777991016 | 1.67° C | 49% | 1026.9 hPa | 0 mm | 1.79 m/s, 243° | - | - |
| 1777990716 | 1.67° C | 50% | 1026.9 hPa | 0 mm | 0.89 m/s, 255° | - | - |
| 1777990417 | 1.11° C | 50% | 1027.1 hPa | 0 mm | 1.34 m/s, 266° | - | - |
| 1777990117 | 1.11° C | 49% | 1027.2 hPa | 0 mm | 1.34 m/s, 295° | - | - |
| 1777989817 | 1.11° C | 49% | 1027.3 hPa | 0 mm | 1.79 m/s, 352° | - | - |
| 1777989518 | 1.11° C | 50% | 1027.4 hPa | 0 mm | 1.34 m/s, 257° | - | - |
| 1777989215 | 1.11° C | 51% | 1027.5 hPa | 0 mm | 1.34 m/s, 269° | - | - |
| 1777988915 | 0.56° C | 52% | 1027.7 hPa | 0 mm | 1.34 m/s, 301° | - | - |
| 1777988616 | 0.56° C | 54% | 1027.7 hPa | 0 mm | 1.34 m/s, 245° | - | - |
| 1777988316 | 0.56° C | 58% | 1027.8 hPa | 0 mm | 0 m/s | - | - |
| 1777988016 | -0.56° C | 62% | 1027.8 hPa | 0 mm | 2.24 m/s, 288° | - | - |
* Rain latest hour (hover to see other rain measurements)
** Current wind speed in m/s (hover to see current wind gust speed)